Hauptseite
METAR-TAF:

METAR-TAF

Flughäfen :

Kangiqsualujjuaq, Québec, Kanada

Breite: 58-43N, Länge: 065-59W, Höhe: 60 m

Beobachtung

Neuester Wetterbericht von vor 12 Stunden und 4 Minuten, um 22:00 UTC
Wind 4 kt aus Süd, variierte zwischen Südost und Südwest
Temperatur -23°C
Luftfeuchtigkeit 70%
Luftdruck 1017 hPa
Sichtweite: 22.5 km
Leicht bewölkt in der Höhe von 600 ft
Aufgelockert bewölkt in der Höhe von 1600 ft
Durchbrochene Bewölkung in der Höhe von 2800 ft
Durchbrochene Bewölkung in der Höhe von 24000 ft

METAR: CYLU 242200Z 18004KT 130V220 14SM FEW006 SCT016 BKN028 BKN240 M23/M27 A3002 RMK SF2SC2SC1CI1 SNW CVR/MUCH LOOSE LAST STFD OBS/NEXT 251300UTC SLP177

Zeit: 05:04 (10:04 UTC)


TAF: fehlend

Wetterbeobachtungen und Prognosen von mehr als 4000 Flughäfen (METAR und TAF Bericht).

Die verfügbaren Stationen werden durch gelbe und rote Markierungen auf der Karte dargestellt.

Führen Sie die Maus auf sie, um den Namen der Station zu sehen.

Darauf klicken, um die Beobachtung von Wetterbeobachtungen und Prognosen zu sehen.

Um die Karte zu ändern : klicken Sie auf den grünen Tasten mit einem schwarzen Kreuz Zum Vergrößern, auf den grünen Button mit einem Gedankenstrich zu verkleinern, oder auf die grünen Pfeile für benachbarte Karten.


METAR-TAF: